Fort Lauderdale Hollywood International Airport Fort Lauderdale US
ICAO: KFLL
IATA: FLL
Category: Large
Scheduled Services: Yes

Elevation: 9 ft
TransAlt. 18000 ft.

Airport Communications:
MIAMI APP:118.1
ATIS:135
CLNC DEL:128.4
MIAMI DEP:119.7
GND:121.4
TWR:119.3
UNICOM:122.95

KFLL Zoom In..

If you have problems with the map follow the link
https://www.worldairports.se/pages/airport.php?
ICAO=KFLL

Runways:

(A) RW 10L length 9000 ft width 150 ft
ILS 110.10 / hdg 96

(B) RW 10R length 5276 ft width 100 ft
---- / hdg 96

(C) RW 28L length 5276 ft width 100 ft
---- / hdg 276

(D) RW 28R length 9000 ft width 150 ft
ILS 110.70 / hdg 276

Location; KFLL
Day. 16 / Time. 02.53 Zulu
* Altimeter: 30.02
* Temperature: 21° c. 69.8°f.
* Wind from: 320° Speed 09 kn.
Dewpoint: 19° c.
Visibility: 10 Statute Miles.
Clouds: Few 5000 ft.
Clouds: Few 13000 ft.

KFLL 160253Z 32009KT 10SM FEW050 FEW130 21/19 A3002 RMK AO2 SLP164 T02060194 51017


Wind From 320°
Speed 09 kn.

 
 
jpsmedia.com for Web Design worldairports.se 2018   terms of use